x

Sentry Shoal (46131) Wave Buoy

7:00 - Tue 27th Sep 2016 All times are PDT. -7 hours from GMT.

  • Sig Wave height 1.6ft
  • Peak Period 3s
  • Wind
    20mph, 22mph gusts
  • Sea Temp 57°f
  • Aire Temp 54°f
  • Sea Pressure 1023.4mb
  • Sentry Shoal
  • Sentry Shoal

More Historic Weather Station data

Upgrade to MSW Pro to gain access to the past 30 days of data for over 8000 Wavebouys and Weather Stations around the globe.

Join Pro

Comparision Forecast

View Surf forecast
   
mar 09/27 7:00 1.6ft 3s 20 22 mph 1023.4mb 57f 54f
6:00 1.6ft 3s 18 22 mph 1023.1mb 57f 55f
5:00 1.6ft 3s 18 22 mph 1022.4mb 57f 55f
4:00 1.6ft 2s 20 27 mph 1021.8mb 58f 55f
3:00 1.6ft 2s 20 22 mph 1021.4mb 58f 56f
2:00 1.3ft 2s 11 16 mph 1021.2mb 58f 56f
1:00 1.3ft 2s 11 13 mph 1020.7mb 58f 56f
12:00  -   -  16
mph
1000mb - 57f
lun 09/26 11:00 2ft 3s 16 22 mph 1019.6mb 58f 58f
10:00 1ft 2s 22 27 mph 1018.4mb 58f 57f
9:00 0.3ft 3s 9 11 mph 1017.8mb 58f 58f
8:00 0.3ft 3s 4
mph
1016.8mb 58f 57f
7:00  -  3s 4
mph
1016.4mb 59f 58f
6:00 0.3ft 3s 4 7 mph 1015.7mb 59f 58f
5:00 0.3ft 3s 4 7 mph 1016.8mb 59f 58f
4:00 0.3ft 3s 4
mph
1016.8mb 59f 58f
3:00 0.3ft 2s 4
mph
1017.2mb 58f 57f
2:00 0.3ft 2s 2 4 mph 1018mb 58f 57f
1:00 0.3ft 2s 7 9 mph 1018.7mb 58f 57f
12:00 0.3ft 4s 4 7 mph 1019.3mb 58f 56f
11:00 0.3ft 2s 2
mph
1019.6mb 58f 57f
10:00  -  2s 4 7 mph 1020.2mb 58f 56f
9:00  -  2s 2 4 mph 1020.7mb 58f 56f
8:00 0.3ft 2s 4
mph
1021.3mb 58f 56f
7:00 0.3ft 3s 2 4 mph 1021.3mb 58f 56f
6:00 0.3ft 3s 7
mph
1022.1mb 58f 56f
5:00 0.3ft 3s 4
mph
1022.6mb 58f 56f
4:00 0.3ft 3s 7 9 mph 1023mb 58f 56f
3:00 0.3ft 3s 4 7 mph 1023.6mb 58f 56f
2:00 0.3ft 4s 7 9 mph 1024.4mb 58f 57f
1:00 0.3ft 3s 4 7 mph 1025.1mb 58f 57f
12:00 0.3ft 2s 7 9 mph 1026.2mb 58f 56f
dom 09/25 11:00 0.3ft 3s 7 9 mph 1026.7mb 58f 56f
10:00 0.3ft 2s 7 9 mph 1027mb 58f 57f
9:00 0.3ft 3s 4
mph
1027.6mb 58f 57f
8:00 0.7ft 3s 4 7 mph 1027.8mb 58f 57f
7:00 0.7ft 4s 4 7 mph 1028mb 59f 57f
6:00 0.7ft 4s 4 7 mph 1028.5mb 59f 57f
5:00 0.7ft 4s 2 4 mph 1029.3mb 59f 58f
4:00 1ft 4s  -  2 mph 1029.6mb 58f 58f
3:00 1.3ft 4s 4 7 mph 1030.1mb 58f 57f
2:00 1.3ft 4s 7 9 mph 1030.2mb 58f 58f
1:00 1.3ft 4s 4
mph
1030.5mb 58f 58f
12:00 1.6ft 4s 7
mph
1030.3mb 58f 57f
11:00 1.6ft 3s 9 11 mph 1030.1mb 58f 57f
10:00 1.6ft 3s 13 16 mph 1029.9mb 58f 57f
9:00 2ft 3s 13 16 mph 1029.8mb 58f 57f
8:00 2ft 3s 13 16 mph 1029.5mb 58f 56f
7:00 2ft 3s 13 18 mph 1029.1mb 58f 56f
6:00 2.5ft 4s 16 20 mph 1028.8mb 58f 56f
5:00 2.5ft 4s 18 22 mph 1028.3mb 57f 56f
4:00 2.5ft 4s 18 22 mph 1028.3mb 57f 56f
3:00 2.5ft 4s 20 25 mph 1028mb 57f 56f
2:00 2.5ft 3s 18 22 mph 1028.2mb 57f 56f
1:00 2.5ft 3s 18 22 mph 1028.5mb 58f 56f
12:00 2.5ft 4s 20 22 mph 1028.5mb 58f 56f
sáb 09/24 11:00 2.5ft 3s 18 22 mph 1028.3mb 58f 56f
10:00 2.5ft 4s 20 22 mph 1028.2mb 58f 56f
9:00 2.5ft 4s 18 22 mph 1028.1mb 58f 56f
8:00 2.5ft 4s 18 20 mph 1028mb 58f 56f
7:00 2ft 3s 13 16 mph 1027.6mb 58f 56f
6:00 1.6ft 3s 16 18 mph 1026.9mb 58f 57f
5:00 1.3ft 2s 18 20 mph 1026.7mb 58f 57f
4:00 1ft 2s 11 16 mph 1027.4mb 59f 56f
3:00 0.3ft 2s 13
mph
1027.2mb 59f 55f
2:00 0.3ft 2s 11 13 mph 1027.4mb 59f 55f
1:00 0.3ft 2s 4 7 mph 1028.3mb 59f 55f
12:00 0.3ft 2s 2 4 mph 1028.7mb 59f 53f
11:00 0.3ft 2s 2 4 mph 1028.6mb 59f 53f
10:00 0.3ft 2s  -  2 mph 1028.9mb 58f 52f
9:00 0.3ft 3s 4 7 mph 1028.6mb 58f 51f
8:00 0.3ft 2s 4 7 mph 1027.2mb 58f 51f
7:00 0.3ft 2s 7 9 mph 1026.5mb 58f 51f
6:00 0.3ft 2s 9
mph
1026.3mb 58f 51f
5:00 0.3ft 3s 4 9 mph 1025.9mb 58f 52f
4:00 0.3ft 2s 7 9 mph 1025.2mb 58f 52f
3:00 0.3ft 2s 7 9 mph 1025mb 58f 51f
2:00 0.3ft 2s 4 9 mph 1024.5mb 58f 51f
1:00 0.3ft 3s 4 7 mph 1023.9mb 58f 52f
12:00 0.3ft 3s 9
mph
1023.3mb 58f 53f
vie 09/23 11:00 0.3ft 3s 4 7 mph 1022.2mb 58f 54f
10:00 0.3ft 3s 7 9 mph 1021.9mb 58f 54f
9:00 0.7ft 4s 2 4 mph 1021.3mb 58f 54f
8:00 1ft 4s 4
mph
1020.1mb 58f 55f
7:00 1ft 4s 2 4 mph 1019mb 58f 55f
6:00 1ft 4s 4
mph
1018.6mb 58f 55f
5:00 1.3ft 5s 9
mph
1017.7mb 58f 54f
4:00 1.3ft 5s 7
mph
1017mb 58f 54f